Time;durP1;ratioP1;P1;durP2;ratioP2;P2;SDS_P1;SDS_P2;PMS_P1;PMS_P2;Temp;Humidity;BMP_temperature;BMP_pressure;BME280_temperature;BME280_humidity;BME280_pressure;Samples;Min_cycle;Max_cycle;Signal;HPM_P1;HPM_P2
2022/09/13 00:00:58;;;;;;;16.10;12.85;;;;;;;22.24;54.32;100869.75;5074354;28;20082;-65
2022/09/13 00:03:50;;;;;;;12.75;11.38;;;;;;;22.17;54.45;100877.84;5073534;28;20036;-65
2022/09/13 00:06:20;;;;;;;14.63;12.13;;;;;;;22.14;54.43;100878.19;5072956;28;20391;-64
2022/09/13 00:08:48;;;;;;;14.20;12.25;;;;;;;22.11;54.63;100877.72;5055401;28;20074;-65
2022/09/13 00:11:23;;;;;;;12.80;11.32;;;;;;;22.07;54.82;100871.75;5073041;28;20040;-64
2022/09/13 00:13:55;;;;;;;12.77;11.13;;;;;;;22.07;54.74;100868.19;5073357;28;20040;-65
2022/09/13 00:16:24;;;;;;;12.30;10.55;;;;;;;22.03;54.97;100862.22;5072475;28;20044;-65
2022/09/13 00:18:52;;;;;;;11.30;10.13;;;;;;;21.98;54.85;100867.34;5072544;28;20052;-64
2022/09/13 00:21:21;;;;;;;13.38;10.55;;;;;;;21.91;55.32;100858.19;5056038;28;20067;-64
2022/09/13 00:23:53;;;;;;;14.50;10.85;;;;;;;21.87;55.56;100862.31;5072804;28;20044;-64
2022/09/13 00:26:23;;;;;;;12.02;10.20;;;;;;;21.86;55.45;100861.47;5072913;28;20090;-65
2022/09/13 00:28:51;;;;;;;14.55;10.88;;;;;;;21.88;55.71;100853.09;5054790;28;20608;-65
2022/09/13 00:31:19;;;;;;;11.60;10.40;;;;;;;21.91;55.68;100855.44;5072647;28;20040;-65
2022/09/13 00:33:49;;;;;;;12.25;10.82;;;;;;;21.94;55.73;100851.50;5054591;28;20094;-64
2022/09/13 00:36:16;;;;;;;15.20;10.38;;;;;;;21.97;55.45;100845.66;5072650;28;20556;-64
2022/09/13 00:38:42;;;;;;;12.90;11.15;;;;;;;21.96;55.36;100846.69;5054517;28;20048;-64
2022/09/13 00:41:13;;;;;;;12.57;11.27;;;;;;;21.96;55.99;100847.56;5077971;28;20066;-64
2022/09/13 00:43:52;;;;;;;14.68;11.20;;;;;;;21.95;55.51;100843.13;5092693;28;20043;-64
2022/09/13 00:46:47;;;;;;;12.55;11.25;;;;;;;21.96;55.70;100833.03;5074401;28;20093;-64
2022/09/13 00:49:21;;;;;;;14.60;10.68;;;;;;;21.95;55.62;100836.78;5092536;28;20082;-64
2022/09/13 00:51:54;;;;;;;15.02;11.27;;;;;;;21.93;55.57;100831.50;5092462;28;20057;-64
2022/09/13 00:54:25;;;;;;;12.98;11.68;;;;;;;21.92;55.45;100835.28;5092674;28;20043;-64
2022/09/13 00:56:56;;;;;;;12.50;10.90;;;;;;;21.91;55.67;100830.84;5060101;28;20102;-64
2022/09/13 00:59:32;;;;;;;14.45;11.25;;;;;;;21.89;55.60;100827.44;5072266;28;20515;-65
2022/09/13 01:02:00;;;;;;;;;;;;;;;21.89;55.52;100820.09;5072394;28;20048;-64
2022/09/13 01:04:32;;;;;;;14.82;10.98;;;;;;;21.92;55.48;100826.22;5072135;28;19938;-64
2022/09/13 01:07:03;;;;;;;14.82;11.02;;;;;;;21.92;55.32;100820.75;5071726;28;20457;-64
2022/09/13 01:09:32;;;;;;;12.48;11.18;;;;;;;21.91;55.65;100814.44;5071914;28;20040;-64
2022/09/13 01:12:03;;;;;;;14.40;11.18;;;;;;;21.91;55.67;100819.91;5083583;28;20036;-64
2022/09/13 01:14:35;;;;;;;13.55;11.68;;;;;;;21.90;55.73;100826.41;5092417;28;20445;-64
2022/09/13 01:17:03;;;;;;;14.52;11.05;;;;;;;21.89;55.51;100824.72;5091643;28;20044;-65
2022/09/13 01:19:30;;;;;;;13.55;10.68;;;;;;;21.88;55.79;100820.28;5091446;28;20037;-65
2022/09/13 01:22:29;;;;;;;14.25;10.10;;;;;;;21.89;55.73;100830.19;5091988;28;20040;-65
2022/09/13 01:25:31;;;;;;;15.45;10.80;;;;;;;21.90;55.77;100829.13;5092166;28;20044;-64
2022/09/13 01:28:36;;;;;;;16.17;10.85;;;;;;;21.88;55.52;100825.75;5074485;28;20101;-65
2022/09/13 01:31:26;;;;;;;12.25;10.77;;;;;;;21.84;55.76;100821.66;5085386;28;20040;-64
2022/09/13 01:34:37;;;;;;;16.05;9.85;;;;;;;21.82;55.89;100827.31;5056927;28;20064;-65
2022/09/13 01:37:24;;;;;;;10.75;9.65;;;;;;;21.82;55.64;100829.22;4999742;28;20386;-65
2022/09/13 01:40:12;;;;;;;11.98;9.57;;;;;;;21.84;55.51;100822.53;5067687;28;20090;-65
2022/09/13 01:43:17;;;;;;;13.40;10.05;;;;;;;21.87;55.64;100822.16;5071353;28;20040;-65
2022/09/13 01:46:14;;;;;;;11.43;10.23;;;;;;;21.90;55.41;100826.41;5071843;28;20094;-64
2022/09/13 01:49:19;;;;;;;12.73;9.48;;;;;;;21.88;55.79;100817.53;5053306;28;20154;-65
2022/09/13 01:51:53;;;;;;;11.50;10.15;;;;;;;21.92;55.42;100816.13;5020148;28;20048;-65
2022/09/13 01:54:57;;;;;;;12.00;9.57;;;;;;;21.95;55.56;100817.66;5072067;28;20536;-64
2022/09/13 01:57:32;;;;;;;11.30;9.85;;;;;;;21.98;55.40;100820.03;5071304;28;20071;-65
2022/09/13 02:00:12;;;;;;;13.00;9.48;;;;;;;21.99;55.28;100817.09;5071224;28;20040;-65
2022/09/13 02:02:45;;;;;;;10.48;9.38;;;;;;;22.01;55.48;100820.50;5071080;28;20036;-65
2022/09/13 02:05:20;;;;;;;11.00;9.90;;;;;;;22.01;55.66;100820.50;5071220;28;20114;-65
2022/09/13 02:07:58;;;;;;;12.25;9.68;;;;;;;22.00;55.38;100821.53;5069243;28;20494;-64
2022/09/13 02:10:40;;;;;;;10.52;9.35;;;;;;;21.94;55.57;100816.81;5071195;28;20402;-65
2022/09/13 02:13:16;;;;;;;10.88;9.48;;;;;;;21.91;55.65;100816.31;5070849;28;20398;-65
2022/09/13 02:15:48;;;;;;;11.70;10.40;;;;;;;21.86;55.67;100817.72;5071217;28;20491;-64
2022/09/13 02:18:21;;;;;;;9.75;8.75;;;;;;;21.79;55.45;100815.91;5070839;28;20456;-65
2022/09/13 02:20:50;;;;;;;9.70;8.70;;;;;;;21.75;55.87;100817.31;5069925;28;20094;-65
2022/09/13 02:23:42;;;;;;;11.65;9.00;;;;;;;21.75;56.02;100809.94;5070944;28;20060;-65
2022/09/13 02:26:13;;;;;;;10.27;8.82;;;;;;;21.80;55.91;100814.88;5052996;28;20099;-65
2022/09/13 02:28:50;;;;;;;11.45;9.25;;;;;;;21.80;55.77;100821.19;5071012;28;20040;-65
2022/09/13 02:31:27;;;;;;;9.95;8.85;;;;;;;21.82;55.81;100807.34;5057126;28;20495;-65
2022/09/13 02:34:02;;;;;;;12.73;9.50;;;;;;;21.83;56.10;100807.16;5074830;28;20071;-65
2022/09/13 02:36:31;;;;;;;10.73;9.15;;;;;;;21.85;56.00;100810.56;5074882;28;20040;-65
2022/09/13 02:39:00;;;;;;;9.93;8.10;;;;;;;21.86;56.03;100804.06;5056717;28;20052;-65
2022/09/13 02:41:55;;;;;;;10.95;8.45;;;;;;;21.87;55.99;100805.75;5081021;28;20060;-65
2022/09/13 02:44:34;;;;;;;10.45;9.13;;;;;;;21.91;56.28;100810.84;5077116;28;20493;-65
2022/09/13 02:47:21;;;;;;;11.73;8.60;;;;;;;21.92;55.91;100812.56;5076660;28;20067;-65
2022/09/13 02:50:04;;;;;;;12.30;8.32;;;;;;;21.95;56.04;100803.97;5094936;28;20047;-64
2022/09/13 02:52:38;;;;;;;11.57;8.32;;;;;;;21.96;56.12;100811.16;5094670;28;20109;-64
2022/09/13 02:55:15;;;;;;;9.37;8.37;;;;;;;21.98;55.79;100812.66;5076816;28;20048;-65
2022/09/13 02:57:52;;;;;;;10.40;8.30;;;;;;;22.00;55.97;100818.81;5092695;28;20503;-65
2022/09/13 03:00:20;;;;;;;9.55;8.10;;;;;;;22.01;56.05;100819.66;5094885;28;20055;-65
2022/09/13 03:02:49;;;;;;;9.80;8.35;;;;;;;21.98;56.04;100818.13;5094396;28;20085;-65
2022/09/13 03:05:17;;;;;;;10.75;8.15;;;;;;;21.97;55.92;100830.09;5093829;28;20085;-65
2022/09/13 03:07:44;;;;;;;9.80;8.02;;;;;;;21.98;55.79;100825.50;5094739;28;20052;-65
2022/09/13 03:10:13;;;;;;;11.05;7.80;;;;;;;21.99;55.93;100825.31;5094473;28;20097;-65
2022/09/13 03:13:38;;;;;;;8.88;7.97;;;;;;;22.00;55.81;100823.41;5094401;28;20036;-65
2022/09/13 03:16:28;;;;;;;11.23;8.20;;;;;;;22.04;55.83;100824.78;5011100;28;20045;-65
2022/09/13 03:19:13;;;;;;;10.52;7.93;;;;;;;22.02;56.09;100832.28;5071094;28;20068;-65
2022/09/13 03:21:46;;;;;;;15.30;8.02;;;;;;;22.02;56.06;100826.81;5073991;28;20049;-65
2022/09/13 03:24:27;;;;;;;8.73;7.75;;;;;;;21.98;56.10;100826.34;5074121;28;20086;-64
2022/09/13 03:27:02;;;;;;;13.23;8.57;;;;;;;21.98;56.13;100814.56;5074066;28;20062;-64
2022/09/13 03:29:54;;;;;;;12.90;8.63;;;;;;;21.98;56.14;100822.75;5073603;28;20037;-64
2022/09/13 03:32:59;;;;;;;9.70;8.13;;;;;;;21.97;56.17;100821.06;5074653;28;20441;-65
2022/09/13 03:35:51;;;;;;;9.73;7.85;;;;;;;21.95;56.09;100821.25;5073785;28;20056;-65
2022/09/13 03:38:20;;;;;;;10.32;7.88;;;;;;;21.94;56.09;100811.34;5074136;28;20329;-65
2022/09/13 03:40:51;;;;;;;9.90;7.95;;;;;;;21.92;55.90;100805.19;5072701;28;20402;-65
2022/09/13 03:43:56;;;;;;;9.02;8.02;;;;;;;21.89;56.35;100806.41;5073787;28;20036;-65
2022/09/13 03:46:33;;;;;;;9.75;7.95;;;;;;;21.92;56.28;100816.13;5073838;28;20036;-65
2022/09/13 03:49:05;;;;;;;10.25;7.85;;;;;;;21.92;56.08;100818.03;5073602;28;20449;-65
2022/09/13 03:51:32;;;;;;;9.88;7.30;;;;;;;21.93;56.14;100806.06;5073549;28;20568;-65
2022/09/13 03:54:07;;;;;;;10.13;8.95;;;;;;;21.93;56.35;100811.53;5093165;28;20097;-65
2022/09/13 03:56:34;;;;;;;9.32;7.55;;;;;;;21.93;56.28;100800.59;5093816;28;20044;-64
2022/09/13 03:59:00;;;;;;;10.20;7.90;;;;;;;21.92;56.27;100804.34;5093599;28;20097;-65
2022/09/13 04:01:27;;;;;;;9.93;8.07;;;;;;;21.90;56.28;100810.00;5093370;28;20499;-65
2022/09/13 04:03:53;;;;;;;10.32;8.10;;;;;;;21.86;55.96;100800.47;5093393;28;20115;-65
2022/09/13 04:06:22;;;;;;;10.43;6.95;;;;;;;21.84;56.14;100803.38;5093473;28;20039;-65
2022/09/13 04:08:49;;;;;;;9.60;7.28;;;;;;;21.82;56.32;100815.53;5075143;28;20500;-65
2022/09/13 04:11:15;;;;;;;8.98;7.55;;;;;;;21.79;56.32;100814.03;5093329;28;20040;-65
2022/09/13 04:13:46;;;;;;;10.07;7.85;;;;;;;21.77;56.13;100812.50;5090834;28;20097;-66
2022/09/13 04:16:14;;;;;;;8.85;7.93;;;;;;;21.77;56.07;100812.50;5093147;28;20048;-65
2022/09/13 04:18:40;;;;;;;9.35;7.80;;;;;;;21.77;56.28;100817.97;5092635;28;20379;-65
2022/09/13 04:21:07;;;;;;;9.15;7.30;;;;;;;21.76;56.48;100824.47;5086248;28;20040;-65
2022/09/13 04:23:35;;;;;;;9.82;7.82;;;;;;;21.78;56.31;100828.72;5072836;28;20094;-65
2022/09/13 04:26:03;;;;;;;10.95;8.73;;;;;;;21.77;56.25;100831.63;5054949;28;20140;-66
2022/09/13 04:28:30;;;;;;;8.60;7.63;;;;;;;21.76;56.45;100830.78;5054863;28;20106;-65
2022/09/13 04:30:57;;;;;;;9.15;7.35;;;;;;;21.76;56.02;100835.41;5054774;28;20094;-65
2022/09/13 04:33:32;;;;;;;8.70;7.80;;;;;;;21.75;56.41;100847.38;5075775;28;20041;-65
2022/09/13 04:35:59;;;;;;;;;;;;;;;21.76;56.34;100844.44;5085914;28;20044;-65
2022/09/13 04:38:26;;;;;;;9.23;6.55;;;;;;;21.80;56.45;100847.69;5072606;28;19977;-65
2022/09/13 04:40:56;;;;;;;9.93;7.40;;;;;;;21.74;56.31;100842.94;5072356;28;20098;-64
2022/09/13 04:43:26;;;;;;;11.23;7.55;;;;;;;21.71;56.27;100844.16;5072378;28;20044;-65
2022/09/13 04:45:53;;;;;;;7.95;7.15;;;;;;;21.72;56.33;100853.19;5072582;28;20034;-65
2022/09/13 04:48:20;;;;;;;9.48;7.68;;;;;;;21.71;56.49;100843.31;5072321;28;20048;-65
2022/09/13 04:50:46;;;;;;;7.88;7.00;;;;;;;21.67;56.35;100847.44;5072545;28;20040;-65
2022/09/13 04:53:13;;;;;;;10.45;7.53;;;;;;;21.65;56.72;100855.81;5076150;28;20093;-65
2022/09/13 04:55:39;;;;;;;11.00;7.35;;;;;;;21.67;56.83;100847.44;5092568;28;20093;-64
2022/09/13 04:58:06;;;;;;;10.32;7.03;;;;;;;21.66;57.05;100848.47;5092262;28;20048;-64
2022/09/13 05:00:33;;;;;;;10.80;7.38;;;;;;;21.65;56.76;100852.22;5092233;28;20559;-65
2022/09/13 05:02:59;;;;;;;10.05;7.35;;;;;;;21.64;56.69;100856.00;5092446;28;20032;-64
2022/09/13 05:05:27;;;;;;;9.43;6.88;;;;;;;21.62;56.62;100852.59;5092380;28;20052;-64
2022/09/13 05:07:54;;;;;;;9.20;6.68;;;;;;;21.61;56.82;100857.19;5072837;28;20482;-64
2022/09/13 05:10:21;;;;;;;9.80;6.55;;;;;;;21.62;56.30;100861.63;5090708;28;20371;-64
2022/09/13 05:12:47;;;;;;;8.30;7.45;;;;;;;21.62;56.93;100855.31;5092028;28;20397;-65
2022/09/13 05:15:14;;;;;;;8.57;7.00;;;;;;;21.62;56.50;100858.91;5092291;28;20098;-64
2022/09/13 05:17:41;;;;;;;10.93;7.13;;;;;;;21.63;56.67;100860.59;5092111;28;20036;-65
2022/09/13 05:20:08;;;;;;;12.40;7.88;;;;;;;21.62;56.82;100864.38;5092290;28;20520;-65
2022/09/13 05:22:34;;;;;;;9.60;7.57;;;;;;;21.65;56.88;100868.63;5091797;28;20036;-64
2022/09/13 05:25:02;;;;;;;9.75;7.65;;;;;;;21.65;57.04;100863.16;5092103;28;20052;-65
2022/09/13 05:27:29;;;;;;;7.95;7.15;;;;;;;21.64;56.50;100870.50;5091801;28;20047;-64
2022/09/13 05:29:55;;;;;;;10.18;7.82;;;;;;;21.63;57.01;100867.94;5071045;28;20475;-65
2022/09/13 05:32:22;;;;;;;9.10;7.68;;;;;;;21.62;57.03;100860.78;5073703;28;20044;-64
2022/09/13 05:34:50;;;;;;;9.45;7.05;;;;;;;21.61;57.13;100862.66;5092015;28;20039;-64
2022/09/13 05:37:17;;;;;;;8.20;7.32;;;;;;;21.61;56.94;100859.94;5073199;28;20035;-66
2022/09/13 05:39:44;;;;;;;9.13;7.32;;;;;;;21.60;56.88;100866.44;5092097;28;20101;-65
2022/09/13 05:42:30;;;;;;;9.35;7.15;;;;;;;21.60;56.91;100858.22;5091508;28;20064;-65
2022/09/13 05:44:57;;;;;;;9.50;7.28;;;;;;;21.61;56.96;100868.13;5056820;28;20105;-64
2022/09/13 05:47:23;;;;;;;8.43;7.20;;;;;;;21.62;57.18;100864.38;5072310;28;20040;-64
2022/09/13 05:49:49;;;;;;;10.27;8.20;;;;;;;21.61;57.71;100868.13;5071355;28;20086;-64
2022/09/13 05:52:36;;;;;;;8.93;7.10;;;;;;;21.59;57.53;100870.19;5071432;28;20044;-65
2022/09/13 05:55:02;;;;;;;9.07;7.63;;;;;;;21.59;57.40;100864.72;5071255;28;20040;-65
2022/09/13 05:57:29;;;;;;;10.75;7.85;;;;;;;21.59;57.52;100864.72;5071203;28;20564;-64
2022/09/13 05:59:55;;;;;;;10.52;8.40;;;;;;;21.59;57.42;100863.88;5071072;28;20456;-64
2022/09/13 06:02:22;;;;;;;12.15;8.43;;;;;;;21.58;57.76;100859.44;5071938;28;20102;-64
2022/09/13 06:04:49;;;;;;;9.93;7.60;;;;;;;21.62;57.84;100861.63;5079355;28;20371;-64
2022/09/13 06:07:16;;;;;;;11.98;8.13;;;;;;;21.66;57.42;100857.50;5091173;28;20052;-65
2022/09/13 06:09:43;;;;;;;10.23;8.30;;;;;;;21.69;57.85;100854.41;5091312;28;20548;-63
2022/09/13 06:12:09;;;;;;;9.98;8.27;;;;;;;21.73;57.82;100863.94;5073183;28;20089;-66
2022/09/13 06:14:37;;;;;;;14.88;8.52;;;;;;;21.76;57.96;100865.47;5091434;28;20047;-67
2022/09/13 06:17:04;;;;;;;11.93;8.80;;;;;;;21.79;57.74;100865.97;5089505;28;20040;-67
2022/09/13 06:19:30;;;;;;;11.70;8.50;;;;;;;21.83;57.76;100866.44;5070976;28;20052;-67
2022/09/13 06:21:57;;;;;;;12.30;8.63;;;;;;;21.88;58.02;100870.34;5071471;28;20051;-67
2022/09/13 06:24:28;;;;;;;12.55;8.57;;;;;;;21.92;57.99;100862.63;5080719;28;20389;-67
2022/09/13 06:26:54;;;;;;;11.13;9.23;;;;;;;21.96;57.90;100861.22;5073084;28;20032;-67
2022/09/13 06:29:21;;;;;;;12.32;9.05;;;;;;;22.02;58.09;100871.44;5090840;28;20043;-67
2022/09/13 06:31:48;;;;;;;14.65;9.65;;;;;;;22.07;57.87;100869.03;5089546;28;20079;-67
2022/09/13 06:34:16;;;;;;;13.40;9.27;;;;;;;22.13;58.04;100873.75;5086613;28;20438;-67
2022/09/13 06:36:42;;;;;;;14.00;9.27;;;;;;;22.18;57.79;100865.00;5070502;28;20044;-67
2022/09/13 06:39:09;;;;;;;9.43;8.30;;;;;;;22.24;57.75;100863.41;5070590;28;20510;-67
2022/09/13 06:41:36;;;;;;;11.55;9.02;;;;;;;22.25;57.63;100863.25;5070341;28;20045;-67
2022/09/13 06:44:03;;;;;;;15.70;9.63;;;;;;;22.28;57.72;100868.34;5070790;28;20404;-66
2022/09/13 06:46:32;;;;;;;16.88;10.18;;;;;;;22.31;57.43;100864.41;5070236;28;20053;-66
2022/09/13 06:49:04;;;;;;;14.02;10.40;;;;;;;22.34;57.82;100864.91;5052629;28;20049;-65
2022/09/13 06:51:32;;;;;;;12.98;10.57;;;;;;;22.39;57.45;100861.59;5052344;28;20498;-66
2022/09/13 06:54:02;;;;;;;11.85;10.35;;;;;;;22.44;57.58;100861.91;5071006;28;20064;-66
2022/09/13 06:56:34;;;;;;;14.73;11.48;;;;;;;22.50;57.50;100856.53;5072022;28;20036;-66
2022/09/13 06:59:04;;;;;;;13.15;10.73;;;;;;;22.59;57.50;100851.81;5070367;28;20045;-65
2022/09/13 07:01:36;;;;;;;14.95;11.63;;;;;;;22.70;57.24;100845.88;5090193;28;20044;-65
2022/09/13 07:04:10;;;;;;;13.15;11.65;;;;;;;22.80;57.27;100856.59;5074469;28;20079;-66
2022/09/13 07:06:39;;;;;;;16.98;13.02;;;;;;;22.87;57.01;100851.22;5089093;28;20105;-66
2022/09/13 07:09:10;;;;;;;16.75;13.45;;;;;;;22.94;56.79;100850.25;5072343;28;20052;-66
2022/09/13 07:11:39;;;;;;;15.57;13.00;;;;;;;23.04;56.83;100853.59;5090196;28;20044;-65
2022/09/13 07:14:07;;;;;;;15.65;13.07;;;;;;;23.16;56.70;100859.44;5089084;28;20040;-65
2022/09/13 07:16:36;;;;;;;16.67;13.70;;;;;;;23.24;56.34;100866.69;5091032;28;20048;-66
2022/09/13 07:19:05;;;;;;;16.80;12.95;;;;;;;23.31;56.18;100863.00;5094104;28;20455;-66
2022/09/13 07:21:33;;;;;;;15.13;13.30;;;;;;;23.42;56.15;100865.25;5093976;28;20036;-66
2022/09/13 07:24:01;;;;;;;17.20;14.20;;;;;;;23.50;56.00;100867.03;5094555;28;20097;-66
2022/09/13 07:26:28;;;;;;;18.05;14.55;;;;;;;23.59;55.87;100862.31;5093687;28;20040;-65
2022/09/13 07:28:57;;;;;;;18.83;13.98;;;;;;;23.67;55.81;100871.25;5091952;28;20498;-66
2022/09/13 07:31:35;;;;;;;19.27;15.38;;;;;;;23.78;55.70;100869.91;5074078;28;20094;-66
2022/09/13 07:34:10;;;;;;;20.92;15.15;;;;;;;23.85;55.62;100876.34;5056558;28;20048;-65
2022/09/13 07:36:37;;;;;;;18.35;15.20;;;;;;;23.91;55.25;100872.81;5073273;28;20322;-65
2022/09/13 07:39:05;;;;;;;23.83;16.08;;;;;;;23.96;55.29;100869.50;5073446;28;20090;-66
2022/09/13 07:41:32;;;;;;;19.23;15.40;;;;;;;23.99;55.14;100872.69;5073152;28;20572;-65
2022/09/13 07:44:06;;;;;;;24.27;16.50;;;;;;;24.04;55.08;100874.84;5074748;28;20056;-65
2022/09/13 07:46:42;;;;;;;22.30;16.52;;;;;;;24.10;54.99;100874.06;5073103;28;20102;-66
2022/09/13 07:49:13;;;;;;;22.38;15.40;;;;;;;24.19;54.71;100881.13;5073666;28;20123;-66
2022/09/13 07:51:41;;;;;;;19.60;16.15;;;;;;;24.28;55.07;100879.97;5074304;28;20089;-66
2022/09/13 07:54:15;;;;;;;21.50;15.68;;;;;;;24.41;54.74;100884.72;5087984;28;20489;-64
2022/09/13 07:56:42;;;;;;;21.75;16.92;;;;;;;24.53;54.84;100888.66;5093246;28;20085;-66
2022/09/13 07:59:14;;;;;;;25.02;17.58;;;;;;;24.63;54.51;100893.78;5093663;28;20040;-67
2022/09/13 08:01:43;;;;;;;21.65;17.42;;;;;;;24.77;54.59;100900.22;5093295;28;20093;-66
2022/09/13 08:04:17;;;;;;;25.58;18.05;;;;;;;24.84;54.13;100892.88;5093661;28;20036;-66
2022/09/13 08:06:45;;;;;;;23.58;18.27;;;;;;;24.90;54.14;100898.41;5075531;28;20113;-66
2022/09/13 08:09:13;;;;;;;26.25;18.40;;;;;;;24.99;54.05;100896.41;5093045;28;20582;-67
2022/09/13 08:11:42;;;;;;;26.02;19.20;;;;;;;25.11;53.93;100897.53;5075051;28;20040;-66
2022/09/13 08:14:11;;;;;;;27.50;18.08;;;;;;;25.24;53.96;100891.25;5093542;28;20082;-66
2022/09/13 08:16:38;;;;;;;23.60;19.45;;;;;;;25.40;53.81;100890.09;5093068;28;20032;-67
2022/09/13 08:19:06;;;;;;;24.27;19.65;;;;;;;25.54;53.55;100894.59;5092747;28;20085;-67
2022/09/13 08:21:39;;;;;;;26.35;19.75;;;;;;;25.64;53.33;100881.28;5093031;28;20069;-66
2022/09/13 08:24:13;;;;;;;24.52;19.83;;;;;;;25.73;53.14;100885.59;5074979;28;20048;-67
2022/09/13 08:26:39;;;;;;;26.92;20.65;;;;;;;25.80;53.14;100893.84;5074761;28;20125;-67
2022/09/13 08:29:06;;;;;;;27.08;20.88;;;;;;;25.86;52.61;100893.88;5092574;28;20048;-67
2022/09/13 08:31:34;;;;;;;26.90;20.55;;;;;;;25.92;52.71;100893.03;5092784;28;20050;-66
2022/09/13 08:34:02;;;;;;;31.40;22.02;;;;;;;26.02;52.64;100897.31;5074750;28;20048;-67
2022/09/13 08:36:29;;;;;;;29.40;21.23;;;;;;;26.11;52.43;100891.41;5092714;28;20082;-67
2022/09/13 08:38:59;;;;;;;27.23;20.63;;;;;;;26.21;52.24;100888.25;5074446;28;20506;-66
2022/09/13 08:41:41;;;;;;;25.88;21.00;;;;;;;26.32;51.90;100901.38;5074620;28;20036;-66
2022/09/13 08:44:22;;;;;;;20.40;18.00;;;;;;;26.38;51.83;100897.81;5093234;28;20127;-67
2022/09/13 08:46:49;;;;;;;22.08;17.50;;;;;;;26.48;51.85;100894.63;5074354;28;20044;-66
2022/09/13 08:49:30;;;;;;;21.63;17.55;;;;;;;26.53;51.67;100903.97;5073806;28;20048;-67
2022/09/13 08:52:20;;;;;;;24.63;17.48;;;;;;;26.63;51.43;100902.69;5074363;28;20044;-67
2022/09/13 08:54:50;;;;;;;20.10;17.33;;;;;;;26.72;51.37;100901.41;5092346;28;20559;-66
2022/09/13 08:57:52;;;;;;;21.63;17.70;;;;;;;26.81;51.48;100911.19;5092351;28;20082;-67
2022/09/13 09:00:39;;;;;;;;;;;;;;;26.94;51.27;100911.16;5092993;28;20041;-67
2022/09/13 09:03:12;;;;;;;21.60;17.23;;;;;;;27.03;51.01;100911.81;5092061;28;19924;-66
2022/09/13 09:05:46;;;;;;;22.80;17.08;;;;;;;27.03;51.02;100907.16;5092207;28;20093;-67
2022/09/13 09:08:19;;;;;;;21.92;16.90;;;;;;;27.08;50.62;100912.84;5057327;28;20044;-67
2022/09/13 09:10:52;;;;;;;23.48;17.58;;;;;;;27.13;50.76;100913.06;5092364;28;20040;-67
2022/09/13 09:13:31;;;;;;;24.40;18.10;;;;;;;27.14;50.48;100903.72;5091840;28;20036;-67
2022/09/13 09:16:03;;;;;;;22.15;17.20;;;;;;;27.17;50.31;100896.94;5073698;28;20563;-67
2022/09/13 09:18:36;;;;;;;20.00;16.90;;;;;;;27.20;50.09;100897.34;5070190;28;20436;-67
2022/09/13 09:21:05;;;;;;;21.13;16.00;;;;;;;27.23;50.16;100898.81;5071706;28;20052;-67
2022/09/13 09:23:48;;;;;;;17.80;15.23;;;;;;;27.23;50.01;100896.06;5071626;28;20044;-68
2022/09/13 09:26:17;;;;;;;17.25;13.85;;;;;;;27.29;49.88;100889.69;5071547;28;20192;-67
2022/09/13 09:28:49;;;;;;;18.33;13.30;;;;;;;27.41;50.01;100895.38;5070169;28;20037;-66
2022/09/13 09:31:41;;;;;;;20.25;15.40;;;;;;;27.49;49.76;100892.34;5071488;28;20430;-67
2022/09/13 09:34:25;;;;;;;21.13;16.08;;;;;;;27.54;49.87;100892.56;5070367;28;20410;-67
2022/09/13 09:37:23;;;;;;;18.23;14.45;;;;;;;27.62;49.83;100886.00;5071158;28;20083;-66
2022/09/13 09:40:01;;;;;;;17.63;13.32;;;;;;;27.70;49.51;100883.81;5070822;28;20041;-67
2022/09/13 09:42:34;;;;;;;14.07;11.50;;;;;;;27.77;49.50;100887.41;5071390;28;20410;-67
2022/09/13 09:45:15;;;;;;;15.70;11.32;;;;;;;27.86;49.40;100882.47;5071286;28;20226;-67
2022/09/13 09:47:46;;;;;;;15.93;13.32;;;;;;;27.93;49.38;100876.91;5071493;28;20040;-67
2022/09/13 09:50:17;;;;;;;16.40;12.25;;;;;;;28.00;49.22;100886.00;5071329;28;20044;-67
2022/09/13 09:52:57;;;;;;;14.60;11.27;;;;;;;28.08;49.38;100882.97;5070976;28;20032;-66
2022/09/13 09:55:52;;;;;;;13.00;10.32;;;;;;;28.22;49.19;100887.31;5071196;28;20048;-67
2022/09/13 09:58:35;;;;;;;14.77;11.70;;;;;;;28.38;49.16;100877.69;5069867;28;20052;-67
2022/09/13 10:01:02;;;;;;;16.00;12.50;;;;;;;28.50;48.85;100886.09;5069851;28;20461;-67
2022/09/13 10:03:32;;;;;;;17.77;13.57;;;;;;;28.59;48.50;100891.09;5071049;28;20094;-67
2022/09/13 10:06:08;;;;;;;15.27;12.02;;;;;;;28.65;48.31;100892.13;5069474;28;20044;-67
2022/09/13 10:08:37;;;;;;;17.80;13.18;;;;;;;28.65;48.35;100887.44;5071484;28;20044;-67
2022/09/13 10:11:05;;;;;;;12.07;10.13;;;;;;;28.64;48.08;100885.75;5070710;28;20068;-67
2022/09/13 10:13:37;;;;;;;13.60;10.80;;;;;;;28.63;47.78;100885.97;5071012;28;20117;-68
2022/09/13 10:16:23;;;;;;;11.48;10.20;;;;;;;28.61;47.75;100875.16;5070556;28;20037;-67
2022/09/13 10:18:52;;;;;;;11.25;9.25;;;;;;;28.65;47.72;100884.69;5086163;28;20032;-67
2022/09/13 10:21:25;;;;;;;13.25;10.30;;;;;;;28.65;47.72;100887.44;5091029;28;20130;-67
2022/09/13 10:24:16;;;;;;;12.82;10.63;;;;;;;28.57;47.60;100881.34;5091223;28;20444;-67
2022/09/13 10:26:42;;;;;;;15.20;10.80;;;;;;;28.54;47.60;100879.88;5090967;28;20514;-67
2022/09/13 10:29:15;;;;;;;14.60;9.85;;;;;;;28.54;47.51;100876.28;5090906;28;20493;-67
2022/09/13 10:31:44;;;;;;;11.63;9.45;;;;;;;28.55;47.84;100870.53;5090718;28;20048;-67
2022/09/13 10:34:41;;;;;;;11.88;8.82;;;;;;;28.60;47.88;100867.94;5091385;28;20102;-67
2022/09/13 10:37:18;;;;;;;14.25;9.00;;;;;;;28.72;47.75;100873.56;5089148;28;20044;-67
2022/09/13 10:40:02;;;;;;;10.38;8.60;;;;;;;28.83;47.67;100878.34;5090538;28;20494;-67
2022/09/13 10:42:30;;;;;;;11.80;9.25;;;;;;;28.87;47.31;100868.53;5090859;28;20041;-67
2022/09/13 10:45:06;;;;;;;11.43;9.75;;;;;;;28.89;47.43;100863.63;5090915;28;20044;-67
2022/09/13 10:47:46;;;;;;;11.50;8.02;;;;;;;28.95;46.71;100871.00;5072934;28;20501;-67
2022/09/13 10:50:34;;;;;;;9.70;7.38;;;;;;;28.94;46.64;100866.56;5090657;28;20048;-67
2022/09/13 10:53:04;;;;;;;10.43;8.32;;;;;;;28.97;46.61;100865.25;5094472;28;20448;-67
2022/09/13 10:55:41;;;;;;;10.88;8.25;;;;;;;29.02;46.61;100857.13;5094700;28;20048;-67
2022/09/13 10:58:07;;;;;;;10.13;7.18;;;;;;;29.15;46.66;100859.75;5094840;28;20056;-67
2022/09/13 11:00:43;;;;;;;8.20;6.60;;;;;;;29.26;46.61;100858.13;5094282;28;20044;-67
2022/09/13 11:03:44;;;;;;;12.05;6.68;;;;;;;29.43;46.66;100859.22;5094565;28;20044;-67
2022/09/13 11:06:20;;;;;;;6.65;5.20;;;;;;;29.60;46.42;100857.50;5094485;28;20494;-68
2022/09/13 11:09:09;;;;;;;6.95;5.95;;;;;;;29.71;45.97;100851.16;5094402;28;20089;-67
2022/09/13 11:11:59;;;;;;;9.50;6.55;;;;;;;29.76;46.00;100855.19;5094098;28;20093;-68
2022/09/13 11:14:48;;;;;;;9.43;6.90;;;;;;;29.84;45.70;100850.16;5094304;28;20044;-68
2022/09/13 11:17:33;;;;;;;11.05;6.00;;;;;;;29.93;45.52;100856.22;5094002;28;20469;-67
2022/09/13 11:20:06;;;;;;;9.32;5.82;;;;;;;29.93;45.36;100845.97;5094147;28;20109;-67
2022/09/13 11:22:41;;;;;;;11.02;6.70;;;;;;;29.97;45.17;100846.34;5094154;28;20036;-67
2022/09/13 11:25:28;;;;;;;7.25;5.50;;;;;;;30.01;44.51;100842.03;5094171;28;20498;-68
2022/09/13 11:28:18;;;;;;;6.38;5.05;;;;;;;30.06;44.42;100835.81;5094576;28;20044;-67
2022/09/13 11:31:11;;;;;;;11.13;6.03;;;;;;;30.09;44.38;100830.63;5093941;28;20044;-67
2022/09/13 11:34:23;;;;;;;7.47;5.93;;;;;;;30.15;44.30;100829.69;5075708;28;20048;-67
2022/09/13 11:37:05;;;;;;;7.32;5.22;;;;;;;30.18;44.18;100823.66;5076017;28;20040;-67
2022/09/13 11:39:39;;;;;;;9.18;6.10;;;;;;;30.14;44.02;100825.22;5093873;28;20071;-67
2022/09/13 11:42:35;;;;;;;9.10;7.57;;;;;;;30.06;43.88;100828.34;5093491;28;20060;-67
2022/09/13 11:45:19;;;;;;;9.63;7.22;;;;;;;29.95;44.00;100823.59;5093662;28;20055;-67
2022/09/13 11:48:13;;;;;;;9.85;7.10;;;;;;;29.88;44.07;100831.16;5094167;28;20036;-67
2022/09/13 11:50:58;;;;;;;11.27;8.98;;;;;;;29.85;44.58;100831.63;5055442;28;20094;-67